Time;durP1;ratioP1;P1;durP2;ratioP2;P2;SDS_P1;SDS_P2;PMS_P1;PMS_P2;Temp;Humidity;BMP_temperature;BMP_pressure;BME280_temperature;BME280_humidity;BME280_pressure;Samples;Min_cycle;Max_cycle;Signal;HPM_P1;HPM_P2
2022/11/09 00:00:06;;;;;;;4.72;4.30;;;12.00;99.90;;;;;;5969487;23;20195;-78
2022/11/09 00:02:33;;;;;;;4.88;4.35;;;12.00;99.90;;;;;;5956008;23;20213;-78
2022/11/09 00:05:01;;;;;;;5.20;4.65;;;12.10;99.90;;;;;;5956639;23;20238;-78
2022/11/09 00:07:33;;;;;;;5.10;4.60;;;12.10;99.90;;;;;;5967780;23;20685;-77
2022/11/09 00:10:00;;;;;;;4.50;4.10;;;12.10;99.90;;;;;;5978653;23;20198;-77
2022/11/09 00:12:27;;;;;;;5.20;4.57;;;12.10;99.90;;;;;;5959320;23;20292;-78
2022/11/09 00:14:58;;;;;;;4.55;4.15;;;12.10;99.90;;;;;;5950957;23;20207;-78
2022/11/09 00:17:26;;;;;;;5.40;4.90;;;12.00;99.90;;;;;;5962165;23;20218;-77
2022/11/09 00:19:53;;;;;;;5.20;4.80;;;12.00;99.90;;;;;;5971078;23;20187;-78
2022/11/09 00:22:21;;;;;;;5.72;4.68;;;12.00;99.90;;;;;;5964766;23;20628;-78
2022/11/09 00:24:48;;;;;;;5.07;4.57;;;11.90;99.90;;;;;;5953803;23;20195;-78
2022/11/09 00:27:15;;;;;;;5.13;4.63;;;11.80;99.90;;;;;;5960414;23;20187;-77
2022/11/09 00:29:42;;;;;;;5.78;5.28;;;11.70;99.90;;;;;;5951024;24;20286;-78
2022/11/09 00:32:11;;;;;;;6.10;5.50;;;11.60;99.90;;;;;;5965341;23;20218;-77
2022/11/09 00:34:38;;;;;;;5.63;5.18;;;11.50;99.90;;;;;;5957439;23;20612;-78
2022/11/09 00:37:05;;;;;;;5.50;5.00;;;11.40;99.90;;;;;;5970423;23;20270;-78
2022/11/09 00:39:33;;;;;;;5.18;4.78;;;11.30;99.90;;;;;;5950745;24;20192;-78
2022/11/09 00:41:59;;;;;;;5.60;5.10;;;11.20;99.90;;;;;;5962327;23;20187;-78
2022/11/09 00:44:28;;;;;;;5.47;4.97;;;11.10;99.90;;;;;;5956657;23;20188;-78
2022/11/09 00:46:55;;;;;;;5.75;5.22;;;11.00;99.90;;;;;;5952250;23;20215;-78
2022/11/09 00:49:23;;;;;;;6.45;5.28;;;11.00;99.90;;;;;;5953470;23;20566;-78
2022/11/09 00:51:50;;;;;;;7.60;5.85;;;10.90;99.90;;;;;;5976891;23;20195;-77
2022/11/09 00:54:18;;;;;;;5.80;5.30;;;10.90;99.90;;;;;;5955084;23;20191;-78
2022/11/09 00:56:45;;;;;;;5.65;5.15;;;10.80;99.90;;;;;;5964784;23;20191;-77
2022/11/09 00:59:12;;;;;;;5.40;4.90;;;10.90;99.90;;;;;;5977017;23;20273;-77
2022/11/09 01:01:39;;;;;;;5.85;5.35;;;10.90;99.90;;;;;;5956502;23;20192;-77
2022/11/09 01:04:06;;;;;;;6.40;5.80;;;10.90;99.90;;;;;;5986583;23;20273;-77
2022/11/09 01:06:35;;;;;;;6.50;5.32;;;10.90;99.90;;;;;;5979648;23;20221;-77
2022/11/09 01:09:03;;;;;;;6.75;5.65;;;10.90;99.90;;;;;;5958393;23;20556;-77
2022/11/09 01:11:30;;;;;;;7.13;5.72;;;11.00;99.90;;;;;;5951679;23;20191;-77
2022/11/09 01:14:01;;;;;;;6.32;5.72;;;11.00;99.90;;;;;;5950928;23;20191;-77
2022/11/09 01:16:28;;;;;;;6.30;5.32;;;11.00;99.90;;;;;;5975969;23;20249;-77
2022/11/09 01:18:57;;;;;;;5.60;5.10;;;11.10;99.90;;;;;;5958433;23;20229;-77
2022/11/09 01:21:25;;;;;;;6.97;5.80;;;11.00;99.90;;;;;;5971582;23;20246;-77
2022/11/09 01:23:54;;;;;;;6.32;5.72;;;11.00;99.90;;;;;;5951025;23;20195;-77
2022/11/09 01:26:22;;;;;;;5.72;5.22;;;11.00;99.90;;;;;;5969871;23;20590;-77
2022/11/09 01:28:49;;;;;;;8.00;6.10;;;11.00;99.90;;;;;;5959802;23;20274;-77
2022/11/09 01:31:21;;;;;;;6.05;5.45;;;10.90;99.90;;;;;;5959626;23;20318;-77
2022/11/09 01:33:49;;;;;;;6.60;5.82;;;10.90;99.90;;;;;;5960303;23;20305;-77
2022/11/09 01:36:18;;;;;;;6.00;5.45;;;10.90;99.90;;;;;;5964425;23;20183;-76
2022/11/09 01:38:46;;;;;;;12.52;5.88;;;10.90;99.90;;;;;;5957201;23;20331;-77
2022/11/09 01:41:17;;;;;;;6.43;5.88;;;10.90;99.90;;;;;;5951322;23;20225;-77
2022/11/09 01:43:45;;;;;;;6.32;5.72;;;10.90;99.90;;;;;;5974360;23;20269;-77
2022/11/09 01:46:20;;;;;;;6.05;5.45;;;10.90;99.90;;;;;;5964727;23;20232;-77
2022/11/09 01:48:52;;;;;;;6.30;5.80;;;10.90;99.90;;;;;;5960501;23;20649;-77
2022/11/09 01:51:24;;;;;;;7.25;5.95;;;11.00;99.90;;;;;;5963567;23;20600;-77
2022/11/09 01:53:58;;;;;;;6.53;5.88;;;11.00;99.90;;;;;;5950661;23;20233;-77
2022/11/09 01:56:29;;;;;;;6.20;5.10;;;11.00;99.90;;;;;;5954392;23;20187;-77
2022/11/09 01:59:00;;;;;;;6.70;5.80;;;11.10;99.90;;;;;;5951109;23;20553;-77
2022/11/09 02:01:28;;;;;;;8.15;5.85;;;11.10;99.90;;;;;;5951556;23;20206;-77
2022/11/09 02:04:04;;;;;;;6.53;5.00;;;11.20;99.90;;;;;;5999366;23;20244;-77
2022/11/09 02:06:32;;;;;;;6.38;5.60;;;11.30;99.90;;;;;;5960381;23;20339;-77
2022/11/09 02:09:06;;;;;;;7.18;5.60;;;11.40;99.90;;;;;;5974885;23;20276;-77
2022/11/09 02:11:36;;;;;;;5.57;5.05;;;11.40;99.90;;;;;;5985781;23;20310;-77
2022/11/09 02:14:04;;;;;;;5.65;4.90;;;11.50;99.90;;;;;;5954299;23;20230;-77
2022/11/09 02:16:32;;;;;;;6.38;5.78;;;11.50;99.90;;;;;;5965043;23;20250;-77
2022/11/09 02:19:00;;;;;;;6.25;5.40;;;11.60;99.90;;;;;;5955176;23;20285;-77
2022/11/09 02:21:30;;;;;;;5.53;4.93;;;11.60;99.90;;;;;;5972830;23;20203;-77
2022/11/09 02:23:58;;;;;;;5.40;4.90;;;11.70;99.90;;;;;;5973804;24;20202;-77
2022/11/09 02:26:30;;;;;;;6.32;5.72;;;11.80;99.90;;;;;;5953273;23;20215;-77
2022/11/09 02:28:58;;;;;;;6.03;5.43;;;11.80;99.90;;;;;;5949438;23;20195;-77
2022/11/09 02:31:30;;;;;;;5.85;5.30;;;11.90;99.90;;;;;;5951132;23;20210;-77
2022/11/09 02:34:04;;;;;;;4.78;4.28;;;11.90;99.90;;;;;;5958586;23;20943;-77
2022/11/09 02:36:35;;;;;;;4.40;4.10;;;12.00;99.90;;;;;;5963554;23;20202;-77
2022/11/09 02:39:03;;;;;;;4.35;3.95;;;12.00;99.90;;;;;;5955817;23;20215;-77
2022/11/09 02:41:32;;;;;;;4.00;3.70;;;12.10;99.90;;;;;;5974319;23;20195;-77
2022/11/09 02:44:00;;;;;;;3.55;3.10;;;12.20;99.90;;;;;;5961152;23;21738;-77
2022/11/09 02:46:32;;;;;;;3.50;3.20;;;12.30;99.90;;;;;;5958754;23;20217;-77
2022/11/09 02:49:00;;;;;;;4.10;3.70;;;12.40;99.90;;;;;;5968328;23;20240;-77
2022/11/09 02:51:27;;;;;;;3.33;3.03;;;12.50;99.90;;;;;;5959744;23;20459;-77
2022/11/09 02:53:56;;;;;;;3.40;3.10;;;12.60;99.90;;;;;;5949013;23;20554;-77
2022/11/09 02:56:23;;;;;;;3.80;3.50;;;12.60;99.90;;;;;;5970684;23;20466;-77
2022/11/09 02:58:51;;;;;;;3.03;2.73;;;12.60;99.90;;;;;;5933435;23;20507;-77
2022/11/09 03:01:18;;;;;;;6.30;3.77;;;12.70;99.90;;;;;;5967979;23;20489;-78
2022/11/09 03:03:46;;;;;;;4.17;3.77;;;12.80;99.90;;;;;;5970094;23;20470;-77
2022/11/09 03:06:13;;;;;;;3.80;3.00;;;12.80;99.90;;;;;;5953173;23;20523;-77
2022/11/09 03:08:40;;;;;;;4.00;3.33;;;12.80;99.90;;;;;;5949956;23;20689;-77
2022/11/09 03:11:09;;;;;;;4.63;3.23;;;12.90;99.90;;;;;;5976427;23;20459;-77
2022/11/09 03:13:36;;;;;;;3.63;3.33;;;12.80;99.90;;;;;;5965040;23;20521;-77
2022/11/09 03:16:05;;;;;;;3.60;3.07;;;12.80;99.90;;;;;;5951838;23;20786;-77
2022/11/09 03:18:33;;;;;;;3.83;3.40;;;12.80;99.90;;;;;;5964140;23;20451;-77
2022/11/09 03:21:04;;;;;;;3.50;3.20;;;12.80;99.90;;;;;;5960040;23;20518;-76
2022/11/09 03:23:32;;;;;;;3.50;3.20;;;12.70;99.90;;;;;;5981418;23;20223;-76
2022/11/09 03:26:00;;;;;;;3.80;3.50;;;12.60;99.90;;;;;;5971642;23;20955;-76
2022/11/09 03:28:28;;;;;;;3.78;3.45;;;12.60;99.90;;;;;;5959011;23;20441;-76
2022/11/09 03:30:56;;;;;;;4.10;3.70;;;12.70;99.90;;;;;;5971217;23;20211;-76
2022/11/09 03:33:23;;;;;;;3.75;3.45;;;12.50;99.90;;;;;;5955724;23;20495;-76
2022/11/09 03:35:51;;;;;;;3.80;3.40;;;12.40;99.90;;;;;;5951993;23;20411;-76
2022/11/09 03:38:18;;;;;;;3.80;3.50;;;12.30;99.90;;;;;;5952147;23;20439;-76
2022/11/09 03:40:45;;;;;;;6.63;3.78;;;12.30;99.90;;;;;;5950654;23;20274;-76
2022/11/09 03:43:12;;;;;;;3.67;3.38;;;12.20;99.90;;;;;;5951493;23;20195;-75
2022/11/09 03:45:41;;;;;;;4.00;3.70;;;12.20;99.90;;;;;;5949912;23;20265;-76
2022/11/09 03:48:09;;;;;;;3.88;3.58;;;12.20;99.90;;;;;;5960157;23;20187;-76
2022/11/09 03:50:39;;;;;;;4.15;3.65;;;12.20;99.90;;;;;;5970194;23;20645;-76
2022/11/09 03:53:07;;;;;;;4.10;3.70;;;12.20;99.90;;;;;;5954206;23;20202;-76
2022/11/09 03:55:34;;;;;;;4.97;4.43;;;12.20;99.90;;;;;;5957677;23;20245;-75
2022/11/09 03:58:02;;;;;;;7.30;4.10;;;12.00;99.90;;;;;;5976629;23;20311;-75
2022/11/09 04:00:29;;;;;;;4.50;4.10;;;11.70;99.90;;;;;;5959076;23;20679;-75
2022/11/09 04:02:58;;;;;;;4.82;4.45;;;11.60;99.90;;;;;;5952617;23;20267;-75
2022/11/09 04:05:26;;;;;;;4.95;4.45;;;11.70;99.90;;;;;;5951463;23;20253;-75
2022/11/09 04:07:55;;;;;;;5.00;4.60;;;11.40;99.90;;;;;;5965221;23;20302;-75
2022/11/09 04:10:23;;;;;;;5.10;4.70;;;11.40;99.90;;;;;;5956905;23;20192;-75
2022/11/09 04:12:51;;;;;;;5.80;5.30;;;11.30;99.90;;;;;;5963467;23;20194;-76
2022/11/09 04:15:18;;;;;;;6.13;5.63;;;11.20;99.90;;;;;;5957761;23;20191;-75
2022/11/09 04:17:53;;;;;;;5.20;4.85;;;11.10;99.90;;;;;;5950348;23;20180;-75
2022/11/09 04:20:22;;;;;;;6.05;5.53;;;11.10;99.90;;;;;;5950098;24;20187;-76
2022/11/09 04:22:54;;;;;;;5.90;5.20;;;11.00;99.90;;;;;;5950925;23;20226;-76
2022/11/09 04:25:22;;;;;;;6.03;5.53;;;11.20;99.90;;;;;;5959405;23;20201;-75
2022/11/09 04:27:54;;;;;;;6.20;5.60;;;11.00;99.90;;;;;;5961805;23;20569;-76
2022/11/09 04:30:22;;;;;;;5.90;5.40;;;11.00;99.90;;;;;;5972523;23;20801;-75
2022/11/09 04:32:50;;;;;;;5.82;5.32;;;10.90;99.90;;;;;;5967050;23;20274;-75
2022/11/09 04:35:17;;;;;;;6.63;5.90;;;10.80;99.90;;;;;;5958813;23;20242;-75
2022/11/09 04:37:53;;;;;;;6.07;5.53;;;10.70;99.90;;;;;;5956425;23;20190;-75
2022/11/09 04:40:21;;;;;;;7.10;6.40;;;10.70;99.90;;;;;;5959260;23;20196;-75
2022/11/09 04:42:48;;;;;;;7.82;7.13;;;10.60;99.90;;;;;;5963318;23;20660;-74
2022/11/09 04:45:15;;;;;;;7.57;6.95;;;10.40;99.90;;;;;;5990707;23;20198;-82
2022/11/09 04:47:44;;;;;;;8.30;7.60;;;10.40;99.90;;;;;;5977713;23;20198;-82
2022/11/09 04:50:11;;;;;;;7.65;6.97;;;10.40;99.90;;;;;;5938997;24;20214;-79
2022/11/09 04:52:39;;;;;;;7.80;7.20;;;10.40;99.90;;;;;;5963678;23;20253;-79
2022/11/09 04:55:10;;;;;;;8.68;7.90;;;10.30;99.90;;;;;;5961413;23;20227;-79
2022/11/09 04:57:37;;;;;;;9.05;8.15;;;10.20;99.90;;;;;;5951042;23;20214;-78
2022/11/09 05:00:06;;;;;;;10.20;9.20;;;10.20;99.90;;;;;;5951905;23;20198;-79
2022/11/09 05:02:33;;;;;;;9.48;8.68;;;10.20;99.90;;;;;;5955748;23;20209;-78
2022/11/09 05:05:00;;;;;;;10.15;9.20;;;10.20;99.90;;;;;;5960778;23;20293;-79
2022/11/09 05:07:28;;;;;;;9.50;8.60;;;10.20;99.90;;;;;;5949756;23;20260;-81
2022/11/09 05:09:56;;;;;;;10.95;9.95;;;10.50;99.90;;;;;;5959808;23;20187;-74
2022/11/09 05:12:24;;;;;;;10.38;9.50;;;10.10;99.90;;;;;;5956045;23;20564;-73
2022/11/09 05:14:51;;;;;;;11.20;10.10;;;10.10;99.90;;;;;;5955046;23;20270;-75
2022/11/09 05:17:19;;;;;;;11.00;10.10;;;10.10;99.90;;;;;;5973352;23;20230;-75
2022/11/09 05:19:46;;;;;;;10.85;9.95;;;10.00;99.90;;;;;;5962686;23;20197;-75
2022/11/09 05:24:58;;;;;;;10.90;9.95;;;10.00;99.90;;;;;;5961057;23;20617;-75
2022/11/09 05:27:27;;;;;;;11.63;10.63;;;10.00;99.90;;;;;;5972550;23;20738;-75
2022/11/09 05:29:54;;;;;;;10.52;9.55;;;10.00;99.90;;;;;;5955824;23;20246;-75
2022/11/09 05:32:22;;;;;;;10.90;9.90;;;10.00;99.90;;;;;;5977240;23;20193;-82
2022/11/09 05:34:49;;;;;;;10.50;9.50;;;10.00;99.90;;;;;;5961733;23;20200;-79
2022/11/09 05:37:19;;;;;;;12.05;11.05;;;10.00;99.90;;;;;;5953684;23;20612;-77
2022/11/09 05:39:46;;;;;;;10.43;9.43;;;10.10;99.90;;;;;;5958497;23;20518;-79
2022/11/09 05:42:14;;;;;;;10.25;9.35;;;10.20;99.90;;;;;;5954170;23;20202;-74
2022/11/09 05:44:43;;;;;;;9.80;8.95;;;10.10;99.90;;;;;;5951609;23;20241;-72
2022/11/09 05:47:10;;;;;;;11.85;10.82;;;10.00;99.90;;;;;;5956708;23;20214;-73
2022/11/09 05:49:37;;;;;;;10.50;9.48;;;10.00;99.90;;;;;;5954296;23;20248;-72
2022/11/09 05:52:04;;;;;;;10.40;9.52;;;10.00;99.90;;;;;;5952206;23;20198;-73
2022/11/09 05:54:32;;;;;;;10.57;9.38;;;10.00;99.90;;;;;;5952373;23;20277;-73
2022/11/09 05:57:02;;;;;;;10.32;9.48;;;10.00;99.90;;;;;;5957114;23;20262;-73
2022/11/09 05:59:29;;;;;;;10.75;9.70;;;10.00;99.90;;;;;;5959254;23;20199;-72
2022/11/09 06:01:59;;;;;;;9.93;9.13;;;10.00;99.90;;;;;;5959137;23;20589;-74
2022/11/09 06:04:26;;;;;;;10.25;9.35;;;10.00;99.90;;;;;;5938406;23;20813;-75
2022/11/09 06:06:54;;;;;;;10.52;9.48;;;10.10;99.90;;;;;;5960993;23;20693;-74
2022/11/09 06:09:22;;;;;;;10.20;9.30;;;10.10;99.90;;;;;;5957816;23;20183;-74
2022/11/09 06:11:50;;;;;;;9.90;9.10;;;10.10;99.90;;;;;;5950472;23;20205;-73
2022/11/09 06:14:18;;;;;;;10.48;9.65;;;10.10;99.90;;;;;;5955666;23;20195;-73
2022/11/09 06:16:46;;;;;;;10.50;9.60;;;10.10;99.90;;;;;;5964870;23;20188;-74
2022/11/09 06:19:14;;;;;;;11.75;10.40;;;10.10;99.90;;;;;;5954257;23;20223;-74
2022/11/09 06:21:41;;;;;;;11.63;10.43;;;10.10;99.90;;;;;;5965799;23;20264;-74
2022/11/09 06:24:09;;;;;;;10.50;9.60;;;10.20;99.90;;;;;;5956498;23;20194;-74
2022/11/09 06:26:37;;;;;;;10.35;9.45;;;10.20;99.90;;;;;;5950428;23;20198;-74
2022/11/09 06:29:06;;;;;;;11.30;10.30;;;10.20;99.90;;;;;;5950495;23;20233;-74
2022/11/09 06:31:33;;;;;;;10.27;9.38;;;10.20;99.90;;;;;;5976660;23;20254;-74
2022/11/09 06:34:00;;;;;;;11.90;10.40;;;10.30;99.90;;;;;;5955476;23;20186;-74
2022/11/09 06:36:30;;;;;;;10.02;9.13;;;10.30;99.90;;;;;;5962164;23;20518;-73
2022/11/09 06:38:57;;;;;;;9.73;8.93;;;10.40;99.90;;;;;;5957626;24;20195;-74
2022/11/09 06:41:25;;;;;;;11.23;10.02;;;10.30;99.90;;;;;;5951205;23;20213;-73
2022/11/09 06:43:52;;;;;;;12.25;11.05;;;10.30;99.90;;;;;;5962645;23;20716;-73
2022/11/09 06:46:19;;;;;;;11.32;10.38;;;10.30;99.90;;;;;;5955084;23;20278;-74
2022/11/09 06:48:46;;;;;;;11.60;10.65;;;10.30;99.90;;;;;;5954767;23;20211;-74
2022/11/09 06:51:14;;;;;;;10.55;9.60;;;10.30;99.90;;;;;;5958770;23;20282;-74
2022/11/09 06:53:43;;;;;;;10.88;9.98;;;10.20;99.90;;;;;;5970984;23;20226;-74
2022/11/09 06:56:10;;;;;;;12.30;11.02;;;10.30;99.90;;;;;;5955942;23;20214;-75
2022/11/09 06:58:37;;;;;;;10.13;9.30;;;10.30;99.90;;;;;;5948146;23;20649;-75
2022/11/09 07:01:09;;;;;;;11.60;10.50;;;10.30;99.90;;;;;;5958888;23;20645;-75
2022/11/09 07:03:36;;;;;;;13.05;11.65;;;10.30;99.90;;;;;;5951838;23;20191;-74
2022/11/09 07:06:05;;;;;;;13.25;12.15;;;10.30;99.90;;;;;;5976563;23;20195;-75
2022/11/09 07:08:33;;;;;;;11.70;10.80;;;10.40;99.90;;;;;;5948694;23;20751;-75
2022/11/09 07:11:06;;;;;;;13.68;12.48;;;10.40;99.90;;;;;;5964541;23;20191;-74
2022/11/09 07:13:33;;;;;;;17.58;15.85;;;10.40;99.90;;;;;;5949695;23;20198;-73
2022/11/09 07:16:01;;;;;;;20.67;18.58;;;10.40;99.90;;;;;;5964489;23;20230;-73
2022/11/09 07:18:28;;;;;;;16.02;14.60;;;10.50;99.90;;;;;;5957333;23;20234;-74
2022/11/09 07:20:55;;;;;;;12.70;11.60;;;10.50;99.90;;;;;;5960541;23;20191;-74
2022/11/09 07:23:22;;;;;;;13.60;12.48;;;10.60;99.90;;;;;;5975868;23;20198;-74
2022/11/09 07:25:49;;;;;;;11.55;10.65;;;10.70;99.90;;;;;;5955423;23;20191;-74
2022/11/09 07:28:18;;;;;;;14.27;13.13;;;10.80;99.90;;;;;;5952856;23;20628;-74
2022/11/09 07:30:49;;;;;;;14.43;13.32;;;10.90;99.90;;;;;;5959288;23;20274;-75
2022/11/09 07:33:18;;;;;;;12.38;11.23;;;11.00;99.90;;;;;;5958096;23;20186;-74
2022/11/09 07:35:45;;;;;;;11.88;10.80;;;11.00;99.90;;;;;;5964892;23;20191;-75
2022/11/09 07:38:14;;;;;;;10.93;10.10;;;11.00;99.90;;;;;;5963942;23;20660;-74
2022/11/09 07:40:42;;;;;;;11.55;9.85;;;11.10;99.90;;;;;;5965066;23;20626;-75
2022/11/09 07:43:11;;;;;;;11.25;10.30;;;11.10;99.90;;;;;;5970220;23;20187;-75
2022/11/09 07:45:40;;;;;;;10.77;9.95;;;11.00;99.90;;;;;;5954329;23;20250;-74
2022/11/09 07:48:10;;;;;;;9.82;8.85;;;11.00;99.90;;;;;;5952210;23;20613;-74
2022/11/09 07:50:39;;;;;;;11.55;9.23;;;11.00;99.90;;;;;;5963167;23;20226;-75
2022/11/09 07:53:07;;;;;;;10.23;9.30;;;11.00;99.90;;;;;;5966123;23;20195;-74
2022/11/09 07:55:36;;;;;;;9.68;8.77;;;11.00;99.90;;;;;;5959073;23;20195;-74
2022/11/09 07:58:06;;;;;;;10.15;9.25;;;11.00;99.90;;;;;;5967472;23;20662;-74
2022/11/09 08:00:36;;;;;;;10.45;9.48;;;11.00;99.90;;;;;;5952676;23;20223;-75
2022/11/09 08:03:05;;;;;;;9.68;8.77;;;11.00;99.90;;;;;;5958411;23;20217;-75
2022/11/09 08:05:32;;;;;;;9.18;8.43;;;11.10;99.90;;;;;;5971571;23;20194;-74
2022/11/09 08:08:01;;;;;;;9.85;8.85;;;11.10;99.90;;;;;;5956303;24;20215;-75
2022/11/09 08:10:30;;;;;;;9.27;7.93;;;11.10;99.90;;;;;;5950766;23;20196;-74
2022/11/09 08:12:58;;;;;;;9.13;8.32;;;11.10;99.90;;;;;;5951064;23;20235;-75
2022/11/09 08:15:27;;;;;;;9.80;8.80;;;11.10;99.90;;;;;;5949564;23;20196;-75
2022/11/09 08:17:58;;;;;;;11.75;10.55;;;11.10;99.90;;;;;;5956984;23;20713;-74
2022/11/09 08:20:27;;;;;;;10.80;9.82;;;11.10;99.90;;;;;;5954366;23;20210;-73
2022/11/09 08:22:55;;;;;;;10.32;9.43;;;11.10;99.90;;;;;;5968328;23;20250;-75
2022/11/09 08:25:22;;;;;;;10.23;9.40;;;11.10;99.90;;;;;;5955556;23;20208;-74
2022/11/09 08:27:49;;;;;;;9.95;9.00;;;11.10;99.90;;;;;;5965204;23;20576;-74
2022/11/09 08:30:19;;;;;;;10.23;9.43;;;11.10;99.90;;;;;;5974270;23;20278;-75
2022/11/09 08:32:46;;;;;;;11.63;10.55;;;11.10;99.90;;;;;;5958589;23;20292;-73
2022/11/09 08:35:19;;;;;;;10.30;9.50;;;11.10;99.90;;;;;;5957066;23;20577;-74
2022/11/09 08:37:49;;;;;;;12.35;11.35;;;11.10;99.90;;;;;;5966484;23;20192;-74
2022/11/09 08:40:20;;;;;;;10.85;9.98;;;11.10;99.90;;;;;;5964313;23;20199;-75
2022/11/09 08:42:47;;;;;;;12.27;11.18;;;11.10;99.90;;;;;;5959152;23;20221;-75
2022/11/09 08:45:18;;;;;;;12.40;11.50;;;11.10;99.90;;;;;;5960252;23;20237;-75
2022/11/09 08:47:45;;;;;;;12.93;11.52;;;11.20;99.90;;;;;;5957630;23;20211;-74
2022/11/09 08:50:15;;;;;;;11.35;10.45;;;11.20;99.90;;;;;;5956801;23;20282;-75
2022/11/09 08:52:42;;;;;;;11.55;10.38;;;11.30;99.90;;;;;;5974886;23;20206;-74
2022/11/09 08:55:11;;;;;;;12.00;11.05;;;11.20;99.90;;;;;;5949799;23;20192;-74
2022/11/09 08:57:38;;;;;;;12.10;10.90;;;11.20;99.90;;;;;;5963881;23;20194;-74
2022/11/09 09:00:08;;;;;;;14.23;10.07;;;11.10;99.90;;;;;;5957132;23;20211;-75
2022/11/09 09:02:35;;;;;;;11.80;10.80;;;11.20;99.90;;;;;;5950099;24;20207;-74
2022/11/09 09:05:02;;;;;;;12.85;11.75;;;11.30;99.90;;;;;;5981726;23;20274;-74
2022/11/09 09:07:29;;;;;;;14.52;12.88;;;11.30;99.90;;;;;;5948630;23;20222;-74
2022/11/09 09:09:56;;;;;;;11.70;10.68;;;11.40;99.90;;;;;;5963173;23;20195;-74
2022/11/09 09:12:26;;;;;;;12.50;11.30;;;11.40;99.90;;;;;;5952484;23;20198;-75
2022/11/09 09:14:53;;;;;;;11.75;10.75;;;11.50;99.90;;;;;;5974334;23;20226;-75
2022/11/09 09:17:20;;;;;;;10.93;9.82;;;11.50;99.90;;;;;;5951070;23;20191;-75
2022/11/09 09:19:48;;;;;;;10.02;9.13;;;11.60;99.90;;;;;;5953535;23;20219;-74
2022/11/09 09:22:15;;;;;;;10.32;9.45;;;11.70;99.90;;;;;;5949480;23;20188;-75
2022/11/09 09:24:43;;;;;;;10.35;9.43;;;11.70;99.90;;;;;;5974602;23;20199;-75
2022/11/09 09:27:10;;;;;;;10.60;9.45;;;11.70;99.90;;;;;;5953850;23;20192;-75
2022/11/09 09:29:38;;;;;;;10.30;9.30;;;11.80;99.90;;;;;;5950434;23;20286;-75
2022/11/09 09:32:05;;;;;;;10.05;9.15;;;11.80;99.90;;;;;;5960719;23;20196;-75
2022/11/09 09:34:33;;;;;;;10.13;9.23;;;11.80;99.90;;;;;;5958673;24;20206;-75
2022/11/09 09:37:01;;;;;;;10.13;9.23;;;11.80;99.90;;;;;;5955218;23;20206;-75
2022/11/09 09:39:29;;;;;;;9.57;8.77;;;11.80;99.90;;;;;;5949240;23;20262;-75
2022/11/09 09:42:00;;;;;;;10.40;8.65;;;11.90;99.90;;;;;;5953769;23;20195;-75
2022/11/09 09:44:33;;;;;;;9.27;8.48;;;11.90;99.90;;;;;;5972774;23;20191;-74
2022/11/09 09:47:08;;;;;;;8.63;7.72;;;11.90;99.90;;;;;;5968057;23;20191;-75
2022/11/09 09:49:40;;;;;;;8.85;8.15;;;12.00;99.90;;;;;;5952230;23;20293;-75
2022/11/09 09:52:16;;;;;;;9.45;7.45;;;12.00;99.90;;;;;;5936010;23;20195;-75
2022/11/09 09:54:48;;;;;;;8.38;7.40;;;12.10;99.90;;;;;;5951125;23;20199;-75
2022/11/09 09:57:22;;;;;;;7.28;6.55;;;12.20;99.90;;;;;;5964716;23;20382;-75
2022/11/09 09:59:52;;;;;;;7.57;6.60;;;12.20;99.90;;;;;;5951956;23;20242;-75
2022/11/09 10:02:24;;;;;;;7.97;7.28;;;12.30;99.90;;;;;;5953343;23;20246;-75
2022/11/09 10:04:53;;;;;;;6.85;6.25;;;12.40;99.90;;;;;;5956278;24;20191;-75
2022/11/09 10:07:28;;;;;;;6.57;6.00;;;12.50;99.90;;;;;;5962481;23;20234;-75
2022/11/09 10:10:30;;;;;;;6.07;5.47;;;12.60;99.90;;;;;;5964576;23;20227;-75
2022/11/09 10:13:26;;;;;;;5.20;4.80;;;12.70;99.90;;;;;;5956174;23;20513;-75
2022/11/09 10:15:57;;;;;;;5.63;5.15;;;12.70;99.90;;;;;;5953981;23;20221;-74
2022/11/09 10:18:36;;;;;;;4.67;4.33;;;12.80;99.90;;;;;;5967845;23;20615;-75
2022/11/09 10:21:14;;;;;;;4.80;4.40;;;12.90;99.90;;;;;;5962807;23;20435;-75
2022/11/09 10:23:52;;;;;;;5.07;4.43;;;13.00;99.90;;;;;;5963639;23;20426;-75
2022/11/09 10:26:23;;;;;;;4.43;3.87;;;13.10;99.90;;;;;;5975120;23;20434;-74
2022/11/09 10:28:58;;;;;;;5.30;4.80;;;13.10;99.90;;;;;;5953171;23;20467;-75
2022/11/09 10:31:28;;;;;;;5.77;5.23;;;13.30;99.90;;;;;;5960904;23;20496;-75
2022/11/09 10:34:03;;;;;;;5.47;4.97;;;13.20;99.90;;;;;;5966354;23;20537;-75
2022/11/09 10:36:37;;;;;;;5.07;4.63;;;13.40;99.90;;;;;;5949266;23;20510;-75
2022/11/09 10:39:05;;;;;;;5.03;4.63;;;13.20;99.90;;;;;;5949463;23;20886;-75
2022/11/09 10:41:43;;;;;;;4.63;4.20;;;13.30;99.90;;;;;;5962549;23;20453;-75
2022/11/09 10:44:14;;;;;;;3.97;3.67;;;13.40;99.90;;;;;;5963705;23;20447;-75
2022/11/09 10:47:04;;;;;;;5.03;4.10;;;13.40;99.90;;;;;;5950331;23;20437;-75
2022/11/09 10:49:33;;;;;;;4.20;3.80;;;13.40;99.90;;;;;;5960706;23;20469;-75
2022/11/09 10:52:01;;;;;;;4.87;4.37;;;13.50;99.90;;;;;;5961271;23;20494;-74
2022/11/09 10:54:32;;;;;;;4.97;4.33;;;13.50;99.90;;;;;;5957729;23;20574;-75
2022/11/09 10:57:09;;;;;;;5.37;4.23;;;13.60;99.90;;;;;;5957433;23;20456;-75
2022/11/09 10:59:43;;;;;;;4.30;4.00;;;13.70;99.90;;;;;;5963533;23;20435;-75
2022/11/09 11:02:40;;;;;;;3.70;3.40;;;13.60;99.90;;;;;;5962228;23;20528;-74
2022/11/09 11:05:30;;;;;;;5.07;4.67;;;13.60;99.90;;;;;;5964679;23;20439;-75
2022/11/09 11:08:03;;;;;;;4.40;4.10;;;13.70;99.90;;;;;;5952013;23;20441;-74
2022/11/09 11:10:30;;;;;;;3.90;3.60;;;13.80;99.90;;;;;;5956365;23;20465;-75
2022/11/09 11:13:20;;;;;;;3.80;3.50;;;13.80;99.90;;;;;;5969945;23;20484;-75
2022/11/09 11:15:48;;;;;;;3.90;3.60;;;13.80;99.90;;;;;;5970298;23;20446;-75
2022/11/09 11:18:36;;;;;;;4.47;4.07;;;13.90;99.90;;;;;;5960974;23;20465;-75
2022/11/09 11:21:15;;;;;;;3.70;3.40;;;13.80;99.90;;;;;;5975345;23;20441;-75
2022/11/09 11:23:42;;;;;;;3.80;3.60;;;13.90;99.90;;;;;;5952888;23;20993;-75
2022/11/09 11:26:24;;;;;;;3.90;3.30;;;13.90;99.90;;;;;;5958341;23;20509;-75
2022/11/09 11:28:57;;;;;;;3.80;3.50;;;14.10;99.90;;;;;;5961375;23;20477;-75
2022/11/09 11:31:24;;;;;;;4.27;3.43;;;14.10;99.90;;;;;;5950931;24;20865;-75
2022/11/09 11:33:52;;;;;;;4.30;3.50;;;14.20;99.90;;;;;;5966999;23;20508;-75
2022/11/09 11:36:30;;;;;;;3.67;3.37;;;14.30;99.90;;;;;;5962959;23;20439;-75
2022/11/09 11:39:09;;;;;;;3.80;3.40;;;14.30;99.90;;;;;;5964653;23;20434;-75
2022/11/09 11:41:48;;;;;;;3.97;3.67;;;14.30;99.90;;;;;;5953105;23;20781;-75
2022/11/09 11:44:30;;;;;;;4.37;3.90;;;14.30;99.90;;;;;;5972930;23;20452;-75
2022/11/09 11:47:02;;;;;;;3.60;3.30;;;14.30;99.90;;;;;;5975914;23;20543;-75
2022/11/09 11:49:53;;;;;;;3.63;3.30;;;14.30;99.90;;;;;;5958913;23;20473;-75
2022/11/09 11:52:31;;;;;;;3.50;3.20;;;14.30;99.90;;;;;;5965661;23;20474;-75
2022/11/09 11:55:21;;;;;;;3.80;3.17;;;14.30;99.90;;;;;;5950313;24;20427;-75
2022/11/09 11:58:02;;;;;;;4.00;3.70;;;14.30;99.90;;;;;;5952987;23;20434;-73
2022/11/09 12:00:35;;;;;;;4.50;3.50;;;14.30;99.90;;;;;;5963612;23;20445;-75
2022/11/09 12:03:27;;;;;;;4.60;4.03;;;14.30;99.90;;;;;;5948165;23;20435;-75
2022/11/09 12:06:31;;;;;;;3.87;3.57;;;14.30;99.90;;;;;;5951757;23;20804;-75
2022/11/09 12:09:21;;;;;;;4.30;3.90;;;14.30;99.90;;;;;;5955036;23;20462;-75
2022/11/09 12:12:00;;;;;;;3.40;3.10;;;14.20;99.90;;;;;;5960864;23;20483;-75
2022/11/09 12:14:39;;;;;;;4.17;3.77;;;14.20;99.90;;;;;;5967064;23;20450;-75
2022/11/09 12:17:14;;;;;;;4.23;3.83;;;14.20;99.90;;;;;;5949066;23;21021;-75
2022/11/09 12:19:54;;;;;;;4.33;4.03;;;14.10;99.90;;;;;;5965625;23;20529;-76
2022/11/09 12:22:29;;;;;;;5.40;3.70;;;14.20;99.90;;;;;;5967252;23;20940;-76
2022/11/09 12:25:09;;;;;;;4.17;3.87;;;14.20;99.90;;;;;;5955355;23;20529;-76
2022/11/09 12:28:12;;;;;;;4.53;3.90;;;14.20;99.90;;;;;;5957894;23;20954;-76
2022/11/09 12:30:53;;;;;;;4.63;4.17;;;14.20;99.90;;;;;;5947310;23;20504;-76
2022/11/09 12:33:26;;;;;;;3.87;3.57;;;14.20;99.90;;;;;;5957614;23;20449;-76
2022/11/09 12:35:56;;;;;;;3.93;3.63;;;14.30;99.90;;;;;;5949506;23;20774;-76
2022/11/09 12:38:27;;;;;;;3.93;3.63;;;14.30;99.90;;;;;;5951415;23;20450;-76
2022/11/09 12:41:01;;;;;;;4.00;3.70;;;14.30;99.90;;;;;;5959420;23;20502;-76
2022/11/09 12:43:32;;;;;;;3.43;3.20;;;14.50;99.90;;;;;;5961779;23;20995;-76
2022/11/09 12:46:00;;;;;;;3.60;3.20;;;14.30;99.90;;;;;;5965315;23;21026;-76
2022/11/09 12:48:29;;;;;;;3.70;3.40;;;14.30;99.90;;;;;;5954318;23;20549;-76
2022/11/09 12:50:59;;;;;;;4.30;3.40;;;14.40;99.90;;;;;;5957382;23;20502;-76
2022/11/09 12:53:30;;;;;;;4.23;3.80;;;14.50;99.90;;;;;;5952856;23;20695;-74
2022/11/09 12:56:04;;;;;;;4.83;4.40;;;14.50;99.90;;;;;;5958306;23;20982;-76
2022/11/09 12:58:34;;;;;;;4.17;3.60;;;14.50;99.90;;;;;;5952149;23;20438;-74
2022/11/09 13:01:05;;;;;;;4.10;3.57;;;14.50;99.90;;;;;;5965082;23;20438;-76